sensor_id;sensor_type;location;lat;lon;timestamp;P1;durP1;ratioP1;P2;durP2;ratioP2
70414;SDS011;57837;52.064;113.478;2022-12-07T00:00:46;36.22;;;11.60;;
70414;SDS011;57837;52.064;113.478;2022-12-07T00:03:51;37.53;;;11.48;;
70414;SDS011;57837;52.064;113.478;2022-12-07T00:06:56;22.70;;;8.90;;
70414;SDS011;57837;52.064;113.478;2022-12-07T00:10:00;17.73;;;7.53;;
70414;SDS011;57837;52.064;113.478;2022-12-07T00:13:04;18.27;;;6.93;;
70414;SDS011;57837;52.064;113.478;2022-12-07T00:16:09;13.60;;;5.72;;
70414;SDS011;57837;52.064;113.478;2022-12-07T00:19:15;5.05;;;1.65;;
70414;SDS011;57837;52.064;113.478;2022-12-07T00:22:18;6.15;;;1.90;;
70414;SDS011;57837;52.064;113.478;2022-12-07T00:25:21;7.68;;;3.50;;
70414;SDS011;57837;52.064;113.478;2022-12-07T00:28:25;9.73;;;3.63;;
70414;SDS011;57837;52.064;113.478;2022-12-07T00:31:30;11.55;;;3.90;;
70414;SDS011;57837;52.064;113.478;2022-12-07T00:34:38;15.18;;;4.78;;
70414;SDS011;57837;52.064;113.478;2022-12-07T00:37:42;11.30;;;4.53;;
70414;SDS011;57837;52.064;113.478;2022-12-07T00:40:53;11.20;;;5.05;;
70414;SDS011;57837;52.064;113.478;2022-12-07T00:43:58;12.10;;;5.63;;
70414;SDS011;57837;52.064;113.478;2022-12-07T00:47:01;9.45;;;4.35;;
70414;SDS011;57837;52.064;113.478;2022-12-07T00:50:05;17.98;;;6.78;;
70414;SDS011;57837;52.064;113.478;2022-12-07T00:53:09;13.82;;;6.05;;
70414;SDS011;57837;52.064;113.478;2022-12-07T00:56:20;21.92;;;9.57;;
70414;SDS011;57837;52.064;113.478;2022-12-07T00:59:25;30.90;;;11.80;;
70414;SDS011;57837;52.064;113.478;2022-12-07T01:02:29;35.40;;;14.50;;
70414;SDS011;57837;52.064;113.478;2022-12-07T01:05:33;34.88;;;15.68;;
70414;SDS011;57837;52.064;113.478;2022-12-07T01:08:36;37.70;;;13.33;;
70414;SDS011;57837;52.064;113.478;2022-12-07T01:11:39;24.45;;;8.30;;
70414;SDS011;57837;52.064;113.478;2022-12-07T01:14:42;19.73;;;7.75;;
70414;SDS011;57837;52.064;113.478;2022-12-07T01:17:45;18.08;;;7.13;;
70414;SDS011;57837;52.064;113.478;2022-12-07T01:20:58;19.88;;;7.07;;
70414;SDS011;57837;52.064;113.478;2022-12-07T01:24:06;14.00;;;6.05;;
70414;SDS011;57837;52.064;113.478;2022-12-07T01:27:12;18.33;;;7.70;;
70414;SDS011;57837;52.064;113.478;2022-12-07T01:30:16;15.07;;;4.93;;
70414;SDS011;57837;52.064;113.478;2022-12-07T01:33:20;21.80;;;5.88;;
70414;SDS011;57837;52.064;113.478;2022-12-07T01:36:27;16.95;;;5.30;;
70414;SDS011;57837;52.064;113.478;2022-12-07T01:39:33;16.17;;;4.20;;
70414;SDS011;57837;52.064;113.478;2022-12-07T01:42:37;18.13;;;8.27;;
70414;SDS011;57837;52.064;113.478;2022-12-07T01:45:41;48.78;;;12.77;;
70414;SDS011;57837;52.064;113.478;2022-12-07T01:48:45;32.08;;;11.20;;
70414;SDS011;57837;52.064;113.478;2022-12-07T01:51:50;20.42;;;6.97;;
70414;SDS011;57837;52.064;113.478;2022-12-07T01:54:58;10.52;;;3.95;;
70414;SDS011;57837;52.064;113.478;2022-12-07T01:58:04;16.85;;;6.43;;
70414;SDS011;57837;52.064;113.478;2022-12-07T02:01:08;22.97;;;7.73;;
70414;SDS011;57837;52.064;113.478;2022-12-07T02:04:11;28.05;;;10.57;;
70414;SDS011;57837;52.064;113.478;2022-12-07T02:07:15;56.22;;;18.10;;
70414;SDS011;57837;52.064;113.478;2022-12-07T02:10:23;30.17;;;9.80;;
70414;SDS011;57837;52.064;113.478;2022-12-07T02:13:29;34.97;;;10.70;;
70414;SDS011;57837;52.064;113.478;2022-12-07T02:17:00;46.10;;;12.18;;
70414;SDS011;57837;52.064;113.478;2022-12-07T02:20:21;21.88;;;7.82;;
70414;SDS011;57837;52.064;113.478;2022-12-07T02:33:13;13.90;;;4.50;;
70414;SDS011;57837;52.064;113.478;2022-12-07T02:36:27;15.10;;;5.55;;
70414;SDS011;57837;52.064;113.478;2022-12-07T02:39:50;16.02;;;6.45;;
70414;SDS011;57837;52.064;113.478;2022-12-07T02:43:07;12.83;;;5.87;;
70414;SDS011;57837;52.064;113.478;2022-12-07T02:46:16;8.50;;;3.28;;
70414;SDS011;57837;52.064;113.478;2022-12-07T02:49:22;13.65;;;4.88;;
70414;SDS011;57837;52.064;113.478;2022-12-07T02:52:27;20.63;;;6.22;;
70414;SDS011;57837;52.064;113.478;2022-12-07T02:55:36;27.67;;;6.65;;
70414;SDS011;57837;52.064;113.478;2022-12-07T03:09:04;14.73;;;4.70;;
70414;SDS011;57837;52.064;113.478;2022-12-07T03:12:32;9.93;;;3.10;;
70414;SDS011;57837;52.064;113.478;2022-12-07T03:15:46;16.50;;;4.50;;
70414;SDS011;57837;52.064;113.478;2022-12-07T03:18:58;16.77;;;3.80;;
70414;SDS011;57837;52.064;113.478;2022-12-07T03:22:09;8.68;;;2.63;;
70414;SDS011;57837;52.064;113.478;2022-12-07T03:25:15;6.13;;;1.80;;
70414;SDS011;57837;52.064;113.478;2022-12-07T03:28:20;7.70;;;2.80;;
70414;SDS011;57837;52.064;113.478;2022-12-07T03:31:33;6.40;;;2.17;;
70414;SDS011;57837;52.064;113.478;2022-12-07T03:34:48;9.40;;;3.35;;
70414;SDS011;57837;52.064;113.478;2022-12-07T03:41:33;12.80;;;3.65;;
70414;SDS011;57837;52.064;113.478;2022-12-07T03:44:46;12.57;;;4.00;;
70414;SDS011;57837;52.064;113.478;2022-12-07T03:48:14;6.82;;;3.00;;
70414;SDS011;57837;52.064;113.478;2022-12-07T03:55:06;8.95;;;3.15;;
70414;SDS011;57837;52.064;113.478;2022-12-07T03:58:17;5.93;;;2.55;;
70414;SDS011;57837;52.064;113.478;2022-12-07T04:01:23;10.70;;;2.13;;
70414;SDS011;57837;52.064;113.478;2022-12-07T04:04:27;9.90;;;3.37;;
70414;SDS011;57837;52.064;113.478;2022-12-07T04:07:31;8.95;;;3.22;;
70414;SDS011;57837;52.064;113.478;2022-12-07T04:10:35;7.35;;;3.38;;
70414;SDS011;57837;52.064;113.478;2022-12-07T04:13:39;15.83;;;6.20;;
70414;SDS011;57837;52.064;113.478;2022-12-07T04:17:00;6.35;;;2.85;;
70414;SDS011;57837;52.064;113.478;2022-12-07T04:20:04;10.57;;;4.38;;
70414;SDS011;57837;52.064;113.478;2022-12-07T04:23:09;9.52;;;3.38;;
70414;SDS011;57837;52.064;113.478;2022-12-07T04:26:12;13.20;;;3.50;;
70414;SDS011;57837;52.064;113.478;2022-12-07T04:29:16;4.80;;;2.38;;
70414;SDS011;57837;52.064;113.478;2022-12-07T04:32:20;4.93;;;2.20;;
70414;SDS011;57837;52.064;113.478;2022-12-07T04:35:24;10.77;;;3.30;;
70414;SDS011;57837;52.064;113.478;2022-12-07T04:38:28;11.97;;;3.63;;
70414;SDS011;57837;52.064;113.478;2022-12-07T04:41:31;10.15;;;3.47;;
70414;SDS011;57837;52.064;113.478;2022-12-07T04:44:35;10.32;;;2.40;;
70414;SDS011;57837;52.064;113.478;2022-12-07T04:47:40;10.15;;;3.30;;
70414;SDS011;57837;52.064;113.478;2022-12-07T04:50:43;3.50;;;1.67;;
70414;SDS011;57837;52.064;113.478;2022-12-07T04:53:47;12.45;;;4.53;;
70414;SDS011;57837;52.064;113.478;2022-12-07T04:56:51;5.65;;;2.80;;
70414;SDS011;57837;52.064;113.478;2022-12-07T04:59:55;4.00;;;1.58;;
70414;SDS011;57837;52.064;113.478;2022-12-07T05:02:59;8.50;;;2.90;;
70414;SDS011;57837;52.064;113.478;2022-12-07T05:06:03;9.15;;;2.10;;
70414;SDS011;57837;52.064;113.478;2022-12-07T05:09:14;4.95;;;1.73;;
70414;SDS011;57837;52.064;113.478;2022-12-07T05:12:18;8.50;;;2.40;;
70414;SDS011;57837;52.064;113.478;2022-12-07T05:15:24;7.33;;;2.60;;
70414;SDS011;57837;52.064;113.478;2022-12-07T05:18:28;6.10;;;2.30;;
70414;SDS011;57837;52.064;113.478;2022-12-07T05:21:32;5.78;;;3.00;;
70414;SDS011;57837;52.064;113.478;2022-12-07T05:24:35;3.85;;;1.65;;
70414;SDS011;57837;52.064;113.478;2022-12-07T05:27:39;6.47;;;2.75;;
70414;SDS011;57837;52.064;113.478;2022-12-07T05:30:43;12.95;;;3.47;;
70414;SDS011;57837;52.064;113.478;2022-12-07T05:33:46;13.00;;;4.22;;
70414;SDS011;57837;52.064;113.478;2022-12-07T05:36:49;7.37;;;2.67;;
70414;SDS011;57837;52.064;113.478;2022-12-07T05:39:53;7.53;;;2.10;;
70414;SDS011;57837;52.064;113.478;2022-12-07T05:42:56;7.40;;;1.25;;
70414;SDS011;57837;52.064;113.478;2022-12-07T05:46:05;5.03;;;1.73;;
70414;SDS011;57837;52.064;113.478;2022-12-07T05:49:09;3.97;;;1.60;;
70414;SDS011;57837;52.064;113.478;2022-12-07T05:52:13;3.13;;;1.40;;
70414;SDS011;57837;52.064;113.478;2022-12-07T05:55:17;6.43;;;3.15;;
70414;SDS011;57837;52.064;113.478;2022-12-07T05:58:21;8.75;;;3.50;;
70414;SDS011;57837;52.064;113.478;2022-12-07T06:01:43;35.03;;;13.80;;
70414;SDS011;57837;52.064;113.478;2022-12-07T06:04:47;10.88;;;4.03;;
70414;SDS011;57837;52.064;113.478;2022-12-07T06:07:51;14.02;;;3.97;;
70414;SDS011;57837;52.064;113.478;2022-12-07T06:10:55;31.05;;;12.50;;
70414;SDS011;57837;52.064;113.478;2022-12-07T06:14:18;5.87;;;2.50;;
70414;SDS011;57837;52.064;113.478;2022-12-07T06:17:22;8.73;;;3.83;;
70414;SDS011;57837;52.064;113.478;2022-12-07T06:20:27;14.10;;;4.32;;
70414;SDS011;57837;52.064;113.478;2022-12-07T06:23:32;9.55;;;2.88;;
70414;SDS011;57837;52.064;113.478;2022-12-07T06:26:35;10.13;;;4.40;;
70414;SDS011;57837;52.064;113.478;2022-12-07T06:29:38;7.45;;;1.95;;
70414;SDS011;57837;52.064;113.478;2022-12-07T06:32:43;7.07;;;1.90;;
70414;SDS011;57837;52.064;113.478;2022-12-07T06:35:46;24.70;;;5.20;;
70414;SDS011;57837;52.064;113.478;2022-12-07T09:11:59;40.08;;;16.13;;
70414;SDS011;57837;52.064;113.478;2022-12-07T09:15:02;36.65;;;10.63;;
70414;SDS011;57837;52.064;113.478;2022-12-07T09:18:06;26.00;;;10.50;;
70414;SDS011;57837;52.064;113.478;2022-12-07T09:21:09;38.05;;;14.23;;
70414;SDS011;57837;52.064;113.478;2022-12-07T09:24:12;25.90;;;9.52;;
70414;SDS011;57837;52.064;113.478;2022-12-07T09:27:15;21.63;;;7.77;;
70414;SDS011;57837;52.064;113.478;2022-12-07T09:30:20;20.30;;;7.70;;
70414;SDS011;57837;52.064;113.478;2022-12-07T09:33:24;12.88;;;4.65;;
70414;SDS011;57837;52.064;113.478;2022-12-07T09:36:28;22.00;;;5.95;;
70414;SDS011;57837;52.064;113.478;2022-12-07T09:39:31;15.25;;;4.95;;
70414;SDS011;57837;52.064;113.478;2022-12-07T09:42:38;12.18;;;4.32;;
70414;SDS011;57837;52.064;113.478;2022-12-07T09:45:48;18.13;;;3.85;;
70414;SDS011;57837;52.064;113.478;2022-12-07T09:48:56;10.03;;;4.40;;
70414;SDS011;57837;52.064;113.478;2022-12-07T09:52:00;8.05;;;3.15;;
70414;SDS011;57837;52.064;113.478;2022-12-07T09:55:11;7.10;;;2.80;;
70414;SDS011;57837;52.064;113.478;2022-12-07T09:58:19;19.80;;;5.43;;
70414;SDS011;57837;52.064;113.478;2022-12-07T10:01:33;12.85;;;3.75;;
70414;SDS011;57837;52.064;113.478;2022-12-07T10:04:37;13.73;;;3.53;;
70414;SDS011;57837;52.064;113.478;2022-12-07T10:07:41;11.32;;;2.70;;
70414;SDS011;57837;52.064;113.478;2022-12-07T10:10:45;12.00;;;4.55;;
70414;SDS011;57837;52.064;113.478;2022-12-07T10:13:53;18.65;;;7.20;;
70414;SDS011;57837;52.064;113.478;2022-12-07T10:16:57;16.83;;;6.90;;
70414;SDS011;57837;52.064;113.478;2022-12-07T10:23:29;7.18;;;3.08;;
70414;SDS011;57837;52.064;113.478;2022-12-07T10:26:34;8.77;;;2.35;;
70414;SDS011;57837;52.064;113.478;2022-12-07T10:29:38;6.27;;;2.53;;
70414;SDS011;57837;52.064;113.478;2022-12-07T10:32:43;9.77;;;3.30;;
70414;SDS011;57837;52.064;113.478;2022-12-07T10:35:46;12.10;;;5.13;;
70414;SDS011;57837;52.064;113.478;2022-12-07T10:38:51;13.15;;;3.53;;
70414;SDS011;57837;52.064;113.478;2022-12-07T10:42:02;6.30;;;2.22;;
70414;SDS011;57837;52.064;113.478;2022-12-07T10:48:36;17.13;;;6.10;;
70414;SDS011;57837;52.064;113.478;2022-12-07T11:21:57;14.45;;;4.90;;
70414;SDS011;57837;52.064;113.478;2022-12-07T11:38:50;23.38;;;7.85;;
70414;SDS011;57837;52.064;113.478;2022-12-07T11:45:37;6.30;;;3.05;;
70414;SDS011;57837;52.064;113.478;2022-12-07T11:49:19;21.60;;;7.88;;
70414;SDS011;57837;52.064;113.478;2022-12-07T11:59:38;9.70;;;3.43;;
70414;SDS011;57837;52.064;113.478;2022-12-07T12:06:31;30.33;;;10.27;;
70414;SDS011;57837;52.064;113.478;2022-12-07T12:09:43;31.20;;;10.20;;
70414;SDS011;57837;52.064;113.478;2022-12-07T12:13:40;22.10;;;8.43;;
70414;SDS011;57837;52.064;113.478;2022-12-07T12:23:43;8.57;;;4.45;;
70414;SDS011;57837;52.064;113.478;2022-12-07T12:26:53;8.82;;;4.10;;
70414;SDS011;57837;52.064;113.478;2022-12-07T12:30:23;8.25;;;3.42;;
70414;SDS011;57837;52.064;113.478;2022-12-07T12:33:44;10.60;;;3.37;;
70414;SDS011;57837;52.064;113.478;2022-12-07T12:36:52;7.93;;;3.10;;
70414;SDS011;57837;52.064;113.478;2022-12-07T12:46:58;8.45;;;3.55;;
70414;SDS011;57837;52.064;113.478;2022-12-07T12:50:22;8.32;;;3.25;;
70414;SDS011;57837;52.064;113.478;2022-12-07T12:53:31;12.02;;;4.75;;
70414;SDS011;57837;52.064;113.478;2022-12-07T13:00:00;11.18;;;4.03;;
70414;SDS011;57837;52.064;113.478;2022-12-07T13:03:16;5.82;;;2.25;;
70414;SDS011;57837;52.064;113.478;2022-12-07T13:06:40;13.57;;;3.60;;
70414;SDS011;57837;52.064;113.478;2022-12-07T13:09:45;9.68;;;3.33;;
70414;SDS011;57837;52.064;113.478;2022-12-07T13:12:56;11.15;;;2.92;;
70414;SDS011;57837;52.064;113.478;2022-12-07T13:19:46;7.53;;;2.47;;
70414;SDS011;57837;52.064;113.478;2022-12-07T13:22:58;9.82;;;3.10;;
70414;SDS011;57837;52.064;113.478;2022-12-07T13:26:21;13.25;;;4.18;;
70414;SDS011;57837;52.064;113.478;2022-12-07T13:29:29;9.85;;;2.78;;
70414;SDS011;57837;52.064;113.478;2022-12-07T13:32:40;12.32;;;3.28;;
70414;SDS011;57837;52.064;113.478;2022-12-07T13:35:43;12.10;;;3.55;;
70414;SDS011;57837;52.064;113.478;2022-12-07T13:38:59;6.43;;;2.10;;
70414;SDS011;57837;52.064;113.478;2022-12-07T13:45:33;7.60;;;3.92;;
70414;SDS011;57837;52.064;113.478;2022-12-07T13:48:52;8.87;;;3.10;;
70414;SDS011;57837;52.064;113.478;2022-12-07T13:55:20;8.25;;;3.13;;
70414;SDS011;57837;52.064;113.478;2022-12-07T13:58:24;10.23;;;3.58;;
70414;SDS011;57837;52.064;113.478;2022-12-07T14:01:30;15.02;;;5.28;;
70414;SDS011;57837;52.064;113.478;2022-12-07T14:04:36;19.55;;;6.47;;
70414;SDS011;57837;52.064;113.478;2022-12-07T14:11:04;34.23;;;9.37;;
70414;SDS011;57837;52.064;113.478;2022-12-07T14:14:10;24.15;;;8.35;;
70414;SDS011;57837;52.064;113.478;2022-12-07T14:17:21;39.95;;;10.63;;
70414;SDS011;57837;52.064;113.478;2022-12-07T14:20:29;49.63;;;14.13;;
70414;SDS011;57837;52.064;113.478;2022-12-07T14:23:35;31.05;;;10.07;;
70414;SDS011;57837;52.064;113.478;2022-12-07T14:26:39;39.17;;;12.50;;
70414;SDS011;57837;52.064;113.478;2022-12-07T14:29:43;27.48;;;7.90;;
70414;SDS011;57837;52.064;113.478;2022-12-07T14:32:48;31.17;;;6.72;;
70414;SDS011;57837;52.064;113.478;2022-12-07T14:35:56;26.92;;;7.63;;
70414;SDS011;57837;52.064;113.478;2022-12-07T14:39:02;35.63;;;10.65;;
70414;SDS011;57837;52.064;113.478;2022-12-07T14:42:14;20.83;;;6.53;;
70414;SDS011;57837;52.064;113.478;2022-12-07T14:45:18;22.60;;;6.32;;
70414;SDS011;57837;52.064;113.478;2022-12-07T14:48:23;22.02;;;6.90;;
70414;SDS011;57837;52.064;113.478;2022-12-07T14:51:46;31.53;;;8.37;;
70414;SDS011;57837;52.064;113.478;2022-12-07T14:55:13;31.48;;;10.50;;
70414;SDS011;57837;52.064;113.478;2022-12-07T14:58:18;29.98;;;10.27;;
70414;SDS011;57837;52.064;113.478;2022-12-07T15:01:23;22.25;;;7.32;;
70414;SDS011;57837;52.064;113.478;2022-12-07T15:04:26;20.65;;;7.78;;
70414;SDS011;57837;52.064;113.478;2022-12-07T15:07:30;23.05;;;9.05;;
70414;SDS011;57837;52.064;113.478;2022-12-07T15:10:34;23.45;;;7.47;;
70414;SDS011;57837;52.064;113.478;2022-12-07T15:13:41;8.80;;;2.80;;
70414;SDS011;57837;52.064;113.478;2022-12-07T15:17:03;8.02;;;2.67;;
70414;SDS011;57837;52.064;113.478;2022-12-07T15:20:14;13.13;;;2.40;;
70414;SDS011;57837;52.064;113.478;2022-12-07T15:23:20;5.40;;;1.87;;
70414;SDS011;57837;52.064;113.478;2022-12-07T15:26:24;6.85;;;2.35;;
70414;SDS011;57837;52.064;113.478;2022-12-07T15:29:27;10.02;;;2.10;;
70414;SDS011;57837;52.064;113.478;2022-12-07T15:32:31;5.03;;;1.85;;
70414;SDS011;57837;52.064;113.478;2022-12-07T15:35:38;4.53;;;1.90;;
70414;SDS011;57837;52.064;113.478;2022-12-07T15:38:46;7.70;;;2.28;;
70414;SDS011;57837;52.064;113.478;2022-12-07T15:42:10;4.88;;;2.10;;
70414;SDS011;57837;52.064;113.478;2022-12-07T15:45:14;5.10;;;1.60;;
70414;SDS011;57837;52.064;113.478;2022-12-07T15:48:18;9.18;;;3.53;;
70414;SDS011;57837;52.064;113.478;2022-12-07T15:51:31;18.45;;;4.55;;
70414;SDS011;57837;52.064;113.478;2022-12-07T15:54:34;9.13;;;4.13;;
70414;SDS011;57837;52.064;113.478;2022-12-07T15:57:38;17.95;;;5.55;;
70414;SDS011;57837;52.064;113.478;2022-12-07T16:00:42;15.82;;;5.38;;
70414;SDS011;57837;52.064;113.478;2022-12-07T16:03:46;21.75;;;5.93;;
70414;SDS011;57837;52.064;113.478;2022-12-07T16:06:50;11.05;;;3.28;;
70414;SDS011;57837;52.064;113.478;2022-12-07T16:09:54;12.60;;;2.45;;
70414;SDS011;57837;52.064;113.478;2022-12-07T16:12:59;9.40;;;1.77;;
70414;SDS011;57837;52.064;113.478;2022-12-07T16:16:04;21.07;;;7.60;;
70414;SDS011;57837;52.064;113.478;2022-12-07T16:19:10;40.40;;;10.68;;
70414;SDS011;57837;52.064;113.478;2022-12-07T16:22:14;35.10;;;10.77;;
70414;SDS011;57837;52.064;113.478;2022-12-07T16:25:18;55.83;;;16.73;;
70414;SDS011;57837;52.064;113.478;2022-12-07T16:28:22;49.58;;;14.90;;
70414;SDS011;57837;52.064;113.478;2022-12-07T16:31:26;40.95;;;13.43;;
70414;SDS011;57837;52.064;113.478;2022-12-07T16:34:31;21.02;;;6.72;;
70414;SDS011;57837;52.064;113.478;2022-12-07T16:37:35;25.45;;;9.10;;
70414;SDS011;57837;52.064;113.478;2022-12-07T16:40:39;19.00;;;6.55;;
70414;SDS011;57837;52.064;113.478;2022-12-07T16:43:42;8.18;;;2.60;;
70414;SDS011;57837;52.064;113.478;2022-12-07T16:46:46;12.13;;;4.40;;
70414;SDS011;57837;52.064;113.478;2022-12-07T16:49:50;13.77;;;3.72;;
70414;SDS011;57837;52.064;113.478;2022-12-07T16:52:55;11.43;;;3.88;;
70414;SDS011;57837;52.064;113.478;2022-12-07T16:55:58;9.27;;;2.27;;
70414;SDS011;57837;52.064;113.478;2022-12-07T16:59:03;6.32;;;2.25;;
70414;SDS011;57837;52.064;113.478;2022-12-07T17:02:08;9.18;;;3.08;;
70414;SDS011;57837;52.064;113.478;2022-12-07T17:05:14;7.80;;;2.75;;
70414;SDS011;57837;52.064;113.478;2022-12-07T17:08:18;7.55;;;2.47;;
70414;SDS011;57837;52.064;113.478;2022-12-07T17:11:23;8.35;;;2.75;;
70414;SDS011;57837;52.064;113.478;2022-12-07T17:14:30;3.78;;;1.60;;
70414;SDS011;57837;52.064;113.478;2022-12-07T17:17:53;5.30;;;1.60;;
70414;SDS011;57837;52.064;113.478;2022-12-07T17:21:06;6.13;;;1.40;;
70414;SDS011;57837;52.064;113.478;2022-12-07T17:24:13;1.98;;;0.95;;
70414;SDS011;57837;52.064;113.478;2022-12-07T17:27:19;5.20;;;1.00;;
70414;SDS011;57837;52.064;113.478;2022-12-07T17:30:23;1.95;;;0.70;;
70414;SDS011;57837;52.064;113.478;2022-12-07T17:33:26;3.10;;;0.80;;
70414;SDS011;57837;52.064;113.478;2022-12-07T17:36:31;2.65;;;0.55;;
70414;SDS011;57837;52.064;113.478;2022-12-07T17:39:35;2.50;;;1.17;;
70414;SDS011;57837;52.064;113.478;2022-12-07T17:42:39;3.92;;;1.60;;
70414;SDS011;57837;52.064;113.478;2022-12-07T17:45:43;6.65;;;3.20;;
70414;SDS011;57837;52.064;113.478;2022-12-07T17:48:47;5.13;;;1.90;;
70414;SDS011;57837;52.064;113.478;2022-12-07T17:51:49;6.07;;;2.30;;
70414;SDS011;57837;52.064;113.478;2022-12-07T17:55:12;5.80;;;1.67;;
70414;SDS011;57837;52.064;113.478;2022-12-07T17:58:16;6.83;;;1.63;;
70414;SDS011;57837;52.064;113.478;2022-12-07T18:01:20;5.00;;;1.60;;
70414;SDS011;57837;52.064;113.478;2022-12-07T18:04:26;7.15;;;2.42;;
70414;SDS011;57837;52.064;113.478;2022-12-07T18:07:31;5.90;;;2.40;;
70414;SDS011;57837;52.064;113.478;2022-12-07T18:10:35;23.23;;;3.22;;
70414;SDS011;57837;52.064;113.478;2022-12-07T18:13:39;6.72;;;2.28;;
70414;SDS011;57837;52.064;113.478;2022-12-07T18:16:43;5.22;;;2.30;;
70414;SDS011;57837;52.064;113.478;2022-12-07T18:19:47;4.13;;;1.70;;
70414;SDS011;57837;52.064;113.478;2022-12-07T18:22:51;3.85;;;1.48;;
70414;SDS011;57837;52.064;113.478;2022-12-07T18:25:55;4.15;;;1.38;;
70414;SDS011;57837;52.064;113.478;2022-12-07T18:28:59;4.97;;;1.40;;
70414;SDS011;57837;52.064;113.478;2022-12-07T18:32:02;7.35;;;2.45;;
70414;SDS011;57837;52.064;113.478;2022-12-07T18:35:06;8.18;;;2.85;;
70414;SDS011;57837;52.064;113.478;2022-12-07T18:38:10;13.10;;;3.60;;
70414;SDS011;57837;52.064;113.478;2022-12-07T18:41:14;9.32;;;3.67;;
70414;SDS011;57837;52.064;113.478;2022-12-07T18:44:17;9.63;;;2.72;;
70414;SDS011;57837;52.064;113.478;2022-12-07T18:47:20;4.50;;;1.45;;
70414;SDS011;57837;52.064;113.478;2022-12-07T18:50:24;1.77;;;0.67;;
70414;SDS011;57837;52.064;113.478;2022-12-07T18:53:27;7.00;;;1.35;;
70414;SDS011;57837;52.064;113.478;2022-12-07T18:56:31;4.70;;;1.48;;
70414;SDS011;57837;52.064;113.478;2022-12-07T18:59:35;3.53;;;1.13;;
70414;SDS011;57837;52.064;113.478;2022-12-07T19:02:49;4.47;;;1.45;;
70414;SDS011;57837;52.064;113.478;2022-12-07T19:05:54;5.07;;;1.45;;
70414;SDS011;57837;52.064;113.478;2022-12-07T19:09:00;2.25;;;1.02;;
70414;SDS011;57837;52.064;113.478;2022-12-07T19:12:04;1.67;;;0.77;;
70414;SDS011;57837;52.064;113.478;2022-12-07T19:15:10;2.25;;;0.98;;
70414;SDS011;57837;52.064;113.478;2022-12-07T19:18:14;2.63;;;0.95;;
70414;SDS011;57837;52.064;113.478;2022-12-07T19:21:17;4.20;;;1.10;;
70414;SDS011;57837;52.064;113.478;2022-12-07T19:24:21;5.03;;;1.85;;
70414;SDS011;57837;52.064;113.478;2022-12-07T19:27:25;7.03;;;2.05;;
70414;SDS011;57837;52.064;113.478;2022-12-07T19:30:29;4.00;;;1.27;;
70414;SDS011;57837;52.064;113.478;2022-12-07T19:33:33;3.95;;;1.75;;
70414;SDS011;57837;52.064;113.478;2022-12-07T19:36:37;7.55;;;2.25;;
70414;SDS011;57837;52.064;113.478;2022-12-07T19:39:42;6.03;;;1.73;;
70414;SDS011;57837;52.064;113.478;2022-12-07T19:42:46;9.93;;;3.65;;
70414;SDS011;57837;52.064;113.478;2022-12-07T19:45:50;9.60;;;3.22;;
70414;SDS011;57837;52.064;113.478;2022-12-07T19:48:54;14.10;;;4.55;;
70414;SDS011;57837;52.064;113.478;2022-12-07T19:51:59;8.80;;;3.00;;
70414;SDS011;57837;52.064;113.478;2022-12-07T19:55:06;9.05;;;2.90;;
70414;SDS011;57837;52.064;113.478;2022-12-07T19:58:10;9.57;;;3.28;;
70414;SDS011;57837;52.064;113.478;2022-12-07T20:01:14;10.73;;;3.03;;
70414;SDS011;57837;52.064;113.478;2022-12-07T20:04:19;5.35;;;1.80;;
70414;SDS011;57837;52.064;113.478;2022-12-07T20:07:25;3.95;;;1.80;;
70414;SDS011;57837;52.064;113.478;2022-12-07T20:10:29;7.10;;;1.63;;
70414;SDS011;57837;52.064;113.478;2022-12-07T20:13:33;5.32;;;0.85;;
70414;SDS011;57837;52.064;113.478;2022-12-07T20:16:37;10.65;;;1.85;;
70414;SDS011;57837;52.064;113.478;2022-12-07T20:19:45;6.57;;;1.38;;
70414;SDS011;57837;52.064;113.478;2022-12-07T20:22:49;9.50;;;2.30;;
70414;SDS011;57837;52.064;113.478;2022-12-07T20:25:52;2.63;;;1.17;;
70414;SDS011;57837;52.064;113.478;2022-12-07T20:28:57;7.15;;;1.92;;
70414;SDS011;57837;52.064;113.478;2022-12-07T20:32:09;4.63;;;1.73;;
70414;SDS011;57837;52.064;113.478;2022-12-07T20:35:15;5.13;;;1.20;;
70414;SDS011;57837;52.064;113.478;2022-12-07T20:38:19;5.18;;;2.03;;
70414;SDS011;57837;52.064;113.478;2022-12-07T20:41:22;3.53;;;1.35;;
70414;SDS011;57837;52.064;113.478;2022-12-07T20:44:44;3.30;;;0.93;;
70414;SDS011;57837;52.064;113.478;2022-12-07T20:47:48;4.15;;;1.42;;
70414;SDS011;57837;52.064;113.478;2022-12-07T20:50:51;10.07;;;4.07;;
70414;SDS011;57837;52.064;113.478;2022-12-07T20:53:55;4.30;;;1.70;;
70414;SDS011;57837;52.064;113.478;2022-12-07T20:56:59;10.38;;;1.90;;
70414;SDS011;57837;52.064;113.478;2022-12-07T21:00:04;2.63;;;0.75;;
70414;SDS011;57837;52.064;113.478;2022-12-07T21:03:09;6.30;;;1.50;;
70414;SDS011;57837;52.064;113.478;2022-12-07T21:06:13;2.53;;;0.93;;
70414;SDS011;57837;52.064;113.478;2022-12-07T21:09:19;5.35;;;1.92;;
70414;SDS011;57837;52.064;113.478;2022-12-07T21:12:28;4.03;;;1.45;;
70414;SDS011;57837;52.064;113.478;2022-12-07T21:15:31;3.67;;;1.42;;
70414;SDS011;57837;52.064;113.478;2022-12-07T21:18:34;6.32;;;1.95;;
70414;SDS011;57837;52.064;113.478;2022-12-07T21:21:39;4.47;;;1.00;;
70414;SDS011;57837;52.064;113.478;2022-12-07T21:24:42;11.47;;;3.50;;
70414;SDS011;57837;52.064;113.478;2022-12-07T21:27:46;6.20;;;1.70;;
70414;SDS011;57837;52.064;113.478;2022-12-07T21:30:54;4.15;;;1.40;;
70414;SDS011;57837;52.064;113.478;2022-12-07T21:34:16;3.20;;;1.03;;
70414;SDS011;57837;52.064;113.478;2022-12-07T21:37:20;3.47;;;1.20;;
70414;SDS011;57837;52.064;113.478;2022-12-07T21:40:23;4.75;;;1.50;;
70414;SDS011;57837;52.064;113.478;2022-12-07T21:43:27;6.97;;;2.40;;
70414;SDS011;57837;52.064;113.478;2022-12-07T21:46:31;4.82;;;2.10;;
70414;SDS011;57837;52.064;113.478;2022-12-07T21:49:36;4.55;;;1.45;;
70414;SDS011;57837;52.064;113.478;2022-12-07T21:52:39;0.88;;;0.55;;
70414;SDS011;57837;52.064;113.478;2022-12-07T21:55:43;3.03;;;1.03;;
70414;SDS011;57837;52.064;113.478;2022-12-07T21:58:47;8.93;;;1.10;;
70414;SDS011;57837;52.064;113.478;2022-12-07T22:01:52;4.00;;;1.25;;
70414;SDS011;57837;52.064;113.478;2022-12-07T22:04:56;4.63;;;1.50;;
70414;SDS011;57837;52.064;113.478;2022-12-07T22:08:00;6.30;;;1.98;;
70414;SDS011;57837;52.064;113.478;2022-12-07T22:11:03;11.23;;;3.05;;
70414;SDS011;57837;52.064;113.478;2022-12-07T22:14:08;18.48;;;5.18;;
70414;SDS011;57837;52.064;113.478;2022-12-07T22:17:30;15.82;;;5.13;;
70414;SDS011;57837;52.064;113.478;2022-12-07T22:20:34;15.68;;;5.28;;
70414;SDS011;57837;52.064;113.478;2022-12-07T22:23:38;5.55;;;1.60;;
70414;SDS011;57837;52.064;113.478;2022-12-07T22:26:42;3.33;;;1.43;;
70414;SDS011;57837;52.064;113.478;2022-12-07T22:29:46;5.90;;;1.77;;
70414;SDS011;57837;52.064;113.478;2022-12-07T22:32:50;5.30;;;1.95;;
70414;SDS011;57837;52.064;113.478;2022-12-07T22:35:54;8.37;;;2.93;;
70414;SDS011;57837;52.064;113.478;2022-12-07T22:38:59;5.28;;;2.50;;